Time;durP1;ratioP1;P1;durP2;ratioP2;P2;SDS_P1;SDS_P2;PMS_P1;PMS_P2;Temp;Humidity;BMP_temperature;BMP_pressure;BME280_temperature;BME280_humidity;BME280_pressure;Samples;Min_cycle;Max_cycle;Signal;HPM_P1;HPM_P2
2024/02/10 00:02:36;;;;;;;1.85;1.35;;;;;;;10.63;67.07;97171.34;10443288;28;20139;-61
2024/02/10 00:07:38;;;;;;;5.60;1.80;;;;;;;10.76;66.97;97171.72;10426720;28;20052;-61
2024/02/10 00:12:40;;;;;;;4.00;2.00;;;;;;;10.82;66.90;97164.06;10432183;28;20718;-61
2024/02/10 00:17:42;;;;;;;8.93;5.03;;;;;;;10.85;66.87;97166.34;10430214;28;20591;-61
2024/02/10 00:22:46;;;;;;;5.60;2.65;;;;;;;10.79;67.08;97166.16;10430164;28;20106;-61
2024/02/10 00:27:51;;;;;;;3.92;2.30;;;;;;;10.81;66.97;97159.81;10430464;28;20080;-61
2024/02/10 00:32:53;;;;;;;3.65;2.17;;;;;;;10.84;66.91;97159.50;10433181;28;20152;-61
2024/02/10 00:37:58;;;;;;;5.05;2.50;;;;;;;10.59;67.07;97155.16;10428040;28;20048;-61
2024/02/10 00:43:00;;;;;;;4.10;2.15;;;;;;;10.48;67.44;97164.09;10431445;28;20047;-61
2024/02/10 00:48:02;;;;;;;4.90;2.65;;;;;;;10.36;67.82;97161.94;10427256;28;20067;-61
2024/02/10 00:53:05;;;;;;;3.90;2.03;;;;;;;10.43;67.71;97162.97;10428483;28;20041;-61
2024/02/10 00:58:07;;;;;;;3.55;2.20;;;;;;;10.34;67.92;97158.66;10429234;28;20037;-61
2024/02/10 01:03:09;;;;;;;4.85;2.60;;;;;;;10.43;68.01;97160.34;10429755;28;20045;-61
2024/02/10 01:08:11;;;;;;;3.58;2.05;;;;;;;10.52;67.85;97165.44;10429523;28;20044;-61
2024/02/10 01:13:13;;;;;;;3.13;1.63;;;;;;;10.53;67.58;97158.41;10430682;28;20048;-61
2024/02/10 01:18:17;;;;;;;1.63;1.10;;;;;;;10.51;67.72;97160.38;10424877;28;20045;-61
2024/02/10 01:23:19;;;;;;;1.52;1.20;;;;;;;10.56;67.72;97157.28;10430588;28;20104;-61
2024/02/10 01:28:21;;;;;;;2.30;1.40;;;;;;;10.65;67.36;97159.75;10431740;28;20147;-61
2024/02/10 01:33:24;;;;;;;1.58;0.90;;;;;;;10.63;67.49;97163.50;10406898;28;20045;-61
2024/02/10 01:38:26;;;;;;;0.70;0.70;;;;;;;10.65;67.40;97162.38;10428861;28;20045;-62
2024/02/10 01:43:28;;;;;;;0.47;0.47;;;;;;;10.66;67.42;97150.13;10419015;28;20127;-61
2024/02/10 01:48:30;;;;;;;0.95;0.45;;;;;;;10.64;67.54;97149.47;10428213;28;20068;-61
2024/02/10 01:53:34;;;;;;;1.13;0.95;;;;;;;10.71;67.36;97156.50;10432023;28;20053;-61
2024/02/10 01:58:38;;;;;;;1.17;0.70;;;;;;;10.75;67.27;97147.38;10436166;28;20568;-61
2024/02/10 02:03:43;;;;;;;0.82;0.73;;;;;;;10.83;67.03;97143.94;10435794;28;20548;-61
2024/02/10 02:08:50;;;;;;;0.68;0.60;;;;;;;10.73;67.34;97141.47;10433842;28;20048;-61
2024/02/10 02:13:53;;;;;;;0.88;0.65;;;;;;;10.72;67.34;97139.03;10432303;28;20164;-61
2024/02/10 02:18:57;;;;;;;0.88;0.77;;;;;;;10.75;67.25;97138.69;10438224;28;20043;-61
2024/02/10 02:23:59;;;;;;;0.77;0.75;;;;;;;10.76;67.26;97143.78;10435074;28;20045;-61
2024/02/10 02:29:01;;;;;;;0.57;0.57;;;;;;;10.75;67.15;97136.91;10436443;28;20049;-61
2024/02/10 02:34:04;;;;;;;0.68;0.68;;;;;;;10.68;67.36;97135.94;10432136;28;20044;-60
2024/02/10 02:39:08;;;;;;;0.70;0.70;;;;;;;10.70;67.00;97128.75;10433894;28;20052;-61
2024/02/10 02:44:14;;;;;;;0.70;0.70;;;;;;;10.73;67.23;97135.44;10436605;28;20045;-61
2024/02/10 02:49:16;;;;;;;1.38;0.90;;;;;;;10.76;66.97;97129.91;10432784;28;20114;-61
2024/02/10 02:54:18;;;;;;;0.55;0.55;;;;;;;10.72;66.80;97131.19;10435666;28;20084;-61
2024/02/10 02:59:20;;;;;;;4.57;1.00;;;;;;;10.79;66.70;97127.75;10434047;28;20067;-61
2024/02/10 03:04:23;;;;;;;1.08;0.90;;;;;;;10.69;66.84;97127.09;10432570;28;20496;-61
2024/02/10 03:09:29;;;;;;;0.90;0.90;;;;;;;10.66;67.06;97121.38;10434031;28;20045;-60
2024/02/10 03:14:31;;;;;;;1.35;1.00;;;;;;;10.46;67.45;97123.47;10432397;28;20044;-61
2024/02/10 03:19:36;;;;;;;1.10;1.00;;;;;;;10.22;68.04;97118.94;10434045;28;21023;-61
2024/02/10 03:24:38;;;;;;;2.08;1.10;;;;;;;10.14;68.37;97116.31;10434297;28;20060;-61
2024/02/10 03:29:40;;;;;;;1.40;1.08;;;;;;;10.23;68.05;97114.56;10432980;28;20060;-61
2024/02/10 03:34:43;;;;;;;0.85;0.80;;;;;;;10.41;67.93;97126.53;10432866;28;20051;-61
2024/02/10 03:39:45;;;;;;;0.80;0.80;;;;;;;10.49;67.84;97120.50;10433276;28;20481;-61
2024/02/10 03:44:47;;;;;;;1.17;0.80;;;;;;;10.37;67.91;97114.78;10434051;28;20045;-61
2024/02/10 03:49:49;;;;;;;2.28;1.15;;;;;;;10.32;68.14;97118.81;10431675;28;20045;-61
2024/02/10 03:54:51;;;;;;;1.33;0.88;;;;;;;10.24;68.36;97117.00;10431627;28;20045;-61
2024/02/10 03:59:55;;;;;;;4.75;1.67;;;;;;;10.39;68.21;97112.00;10414634;28;20116;-61
2024/02/10 04:04:58;;;;;;;2.95;1.60;;;;;;;10.48;67.99;97108.44;10430605;28;20041;-61
2024/02/10 04:10:00;;;;;;;1.75;1.10;;;;;;;10.46;68.09;97102.56;10431204;28;20041;-61
2024/02/10 04:15:04;;;;;;;1.95;1.23;;;;;;;10.38;67.93;97102.50;10427341;28;20061;-61
2024/02/10 04:20:07;;;;;;;1.73;1.08;;;;;;;10.43;68.07;97108.09;10429352;28;20048;-61
2024/02/10 04:25:09;;;;;;;1.58;1.20;;;;;;;10.44;67.83;97112.31;10430825;28;20123;-61
2024/02/10 04:30:11;;;;;;;1.48;1.00;;;;;;;10.31;68.12;97107.56;10431027;28;20052;-61
2024/02/10 04:35:14;;;;;;;1.05;0.98;;;;;;;10.26;68.18;97116.84;10430935;28;20043;-61
2024/02/10 04:40:17;;;;;;;1.35;1.00;;;;;;;10.15;68.45;97110.13;10430318;28;20041;-61
2024/02/10 04:45:32;;;;;;;1.45;0.98;;;;;;;10.15;68.69;97112.75;10430953;28;20139;-61
2024/02/10 04:50:34;;;;;;;3.33;1.17;;;;;;;10.32;68.31;97105.75;10429052;28;20056;-60
2024/02/10 04:55:41;;;;;;;1.52;1.10;;;;;;;10.44;68.05;97109.72;10428670;28;20053;-61
2024/02/10 05:00:43;;;;;;;1.00;0.90;;;;;;;10.42;67.88;97098.59;10430889;28;20115;-61
2024/02/10 05:05:45;;;;;;;1.65;1.13;;;;;;;10.08;68.23;97096.03;10429748;28;20051;-61
2024/02/10 05:10:47;;;;;;;1.85;1.13;;;;;;;10.04;68.64;97097.34;10432739;28;20139;-61
2024/02/10 05:15:49;;;;;;;1.73;1.20;;;;;;;10.04;68.64;97096.50;10426150;28;20065;-61
2024/02/10 05:20:52;;;;;;;2.80;1.50;;;;;;;10.03;68.24;97107.94;10429300;28;20479;-61
2024/02/10 05:25:54;;;;;;;5.93;1.48;;;;;;;10.11;68.14;97110.59;10429085;28;20041;-61
2024/02/10 05:30:57;;;;;;;6.35;1.40;;;;;;;10.14;67.93;97112.88;10431424;28;20489;-61
2024/02/10 05:35:59;;;;;;;1.63;1.10;;;;;;;10.16;67.89;97103.09;10428377;28;20041;-61
2024/02/10 05:41:01;;;;;;;4.60;1.52;;;;;;;10.09;67.73;97112.53;10423874;28;20094;-61
2024/02/10 05:46:06;;;;;;;1.77;1.20;;;;;;;9.87;67.98;97118.31;10427667;28;20401;-61
2024/02/10 05:51:11;;;;;;;7.13;1.98;;;;;;;9.76;68.17;97131.59;10427855;28;20124;-61
2024/02/10 05:56:15;;;;;;;2.67;1.40;;;;;;;9.67;68.41;97124.72;10430757;28;20497;-61
2024/02/10 06:01:19;;;;;;;15.25;1.50;;;;;;;9.62;68.60;97125.97;10430271;28;20501;-61
2024/02/10 06:06:22;;;;;;;2.95;1.40;;;;;;;9.39;68.65;97127.44;10429901;28;20519;-61
2024/02/10 06:11:25;;;;;;;3.25;1.42;;;;;;;9.34;68.78;97110.59;10429691;28;20045;-61
2024/02/10 06:16:27;;;;;;;1.35;1.02;;;;;;;9.22;68.86;97109.22;10428684;28;20489;-61
2024/02/10 06:21:33;;;;;;;4.78;1.60;;;;;;;9.09;69.10;97132.25;10431458;28;20132;-61
2024/02/10 06:26:36;;;;;;;83.25;3.80;;;;;;;8.97;69.13;97131.66;10431004;28;20056;-61
2024/02/10 06:31:40;;;;;;;5.10;1.40;;;;;;;8.97;69.12;97133.44;10428948;28;20053;-61
2024/02/10 06:36:47;;;;;;;6.95;1.80;;;;;;;9.01;69.02;97145.19;10432784;28;20048;-61
2024/02/10 06:41:50;;;;;;;3.40;1.63;;;;;;;9.08;68.81;97152.28;10433422;28;20622;-61
2024/02/10 06:46:52;;;;;;;12.63;1.95;;;;;;;9.00;68.84;97167.84;10432509;28;20044;-61
2024/02/10 06:51:54;;;;;;;8.02;2.13;;;;;;;9.11;68.90;97161.59;10433936;28;20049;-61
2024/02/10 06:57:02;;;;;;;1.90;1.40;;;;;;;9.26;68.53;97168.72;10434646;28;20041;-61
2024/02/10 07:02:06;;;;;;;5.10;2.03;;;;;;;9.35;68.40;97177.44;10435456;28;20459;-61
2024/02/10 07:07:10;;;;;;;79.25;3.65;;;;;;;9.30;68.53;97175.28;10435682;28;20139;-61
2024/02/10 07:12:14;;;;;;;12.40;3.38;;;;;;;9.33;68.68;97182.81;10426871;28;20053;-62
2024/02/10 07:17:16;;;;;;;93.35;4.00;;;;;;;9.32;68.36;97180.34;10428129;28;20048;-61
2024/02/10 07:22:19;;;;;;;30.67;2.70;;;;;;;9.41;68.37;97175.06;10429228;28;20152;-61
2024/02/10 07:27:26;;;;;;;42.03;2.47;;;;;;;9.52;68.02;97174.78;10429387;28;20129;-61
2024/02/10 07:32:28;;;;;;;48.03;3.00;;;;;;;9.36;67.87;97179.88;10429341;28;20071;-61
2024/02/10 07:37:31;;;;;;;39.67;2.35;;;;;;;9.03;68.25;97182.38;10426277;28;20107;-61
2024/02/10 07:42:36;;;;;;;82.07;3.10;;;;;;;9.16;68.52;97183.63;10430439;28;20132;-61
2024/02/10 07:47:38;;;;;;;118.88;4.38;;;;;;;9.25;68.23;97181.91;10429993;28;20041;-61
2024/02/10 07:52:42;;;;;;;31.83;3.28;;;;;;;9.35;68.13;97193.91;10428396;28;20055;-61
2024/02/10 07:57:44;;;;;;;175.98;7.00;;;;;;;9.52;67.88;97197.47;10426084;28;20087;-61
2024/02/10 08:02:46;;;;;;;63.42;3.83;;;;;;;9.63;67.69;97195.44;10417159;28;20047;-61
2024/02/10 08:07:48;;;;;;;89.78;4.70;;;;;;;9.69;67.35;97193.25;10433301;28;20489;-61
2024/02/10 08:12:51;;;;;;;12.98;2.00;;;;;;;9.82;67.20;97191.03;10430582;28;20124;-61
2024/02/10 08:18:05;;;;;;;67.80;3.83;;;;;;;9.85;66.95;97190.72;10432383;28;20075;-60
2024/02/10 08:23:11;;;;;;;35.13;2.92;;;;;;;9.81;66.94;97194.63;10416974;28;20530;-61
2024/02/10 08:28:14;;;;;;;4.13;2.47;;;;;;;9.97;67.03;97192.91;10431984;28;20072;-61
2024/02/10 08:33:18;;;;;;;27.88;1.98;;;;;;;10.19;66.88;97179.34;10429799;28;20734;-61
2024/02/10 08:38:21;;;;;;;39.08;3.08;;;;;;;10.36;66.53;97186.28;10431033;28;20041;-61
2024/02/10 08:43:24;;;;;;;146.60;6.72;;;;;;;10.46;66.33;97191.41;10430625;28;20047;-62
2024/02/10 08:48:28;;;;;;;177.00;6.20;;;;;;;10.52;66.35;97182.94;10429257;28;20060;-60
2024/02/10 08:53:30;;;;;;;4.47;2.10;;;;;;;10.50;66.40;97185.69;10429451;28;20040;-61
2024/02/10 08:58:32;;;;;;;2.38;1.50;;;;;;;10.61;66.56;97181.97;10430117;28;20044;-61
2024/02/10 09:03:34;;;;;;;2.13;1.40;;;;;;;10.83;66.38;97186.59;10430522;28;20477;-61
2024/02/10 09:08:36;;;;;;;3.08;1.80;;;;;;;11.03;66.31;97180.09;10427130;28;20195;-61
2024/02/10 09:13:39;;;;;;;32.83;2.92;;;;;;;11.03;66.27;97187.94;10428660;28;20917;-61
2024/02/10 09:18:44;;;;;;;4.57;2.80;;;;;;;11.26;65.77;97178.53;10430274;28;20438;-61
2024/02/10 09:23:49;;;;;;;4.18;2.08;;;;;;;11.14;65.68;97169.38;10429389;28;20044;-60
2024/02/10 09:28:51;;;;;;;4.13;2.45;;;;;;;10.90;66.50;97171.09;10429283;28;20053;-61
2024/02/10 09:33:53;;;;;;;4.10;2.20;;;;;;;10.89;66.54;97167.66;10428706;28;20056;-58
2024/02/10 09:38:55;;;;;;;5.07;1.95;;;;;;;10.82;67.05;97158.00;10430320;28;20077;-58
2024/02/10 09:43:57;;;;;;;4.13;2.30;;;;;;;11.10;66.89;97162.84;10414945;28;20052;-58
2024/02/10 09:49:03;;;;;;;4.43;2.63;;;;;;;11.30;66.58;97163.31;10428910;28;20067;-58
2024/02/10 09:54:05;;;;;;;3.53;2.00;;;;;;;11.37;66.47;97164.31;10428011;28;20060;-58
2024/02/10 09:59:22;;;;;;;3.80;2.20;;;;;;;11.57;66.03;97152.53;10410639;28;20548;-58
2024/02/10 10:04:25;;;;;;;5.47;2.17;;;;;;;11.62;65.87;97141.56;10424992;28;20146;-58
2024/02/10 10:09:30;;;;;;;3.63;2.20;;;;;;;11.65;66.32;97138.63;10428251;28;20084;-59
2024/02/10 10:14:36;;;;;;;4.85;1.88;;;;;;;11.96;65.95;97147.41;10432044;28;20070;-59
2024/02/10 10:19:37;;;;;;;5.88;2.88;;;;;;;12.18;65.63;97153.72;10430630;28;20412;-58
2024/02/10 10:24:41;;;;;;;4.20;2.33;;;;;;;12.39;65.60;97154.00;10430191;28;20060;-59
2024/02/10 10:29:44;;;;;;;3.67;2.10;;;;;;;12.58;65.23;97143.91;10428857;28;20049;-59
2024/02/10 10:34:48;;;;;;;7.03;2.55;;;;;;;12.77;65.16;97140.06;10428401;28;20080;-59
2024/02/10 10:39:51;;;;;;;4.43;2.53;;;;;;;13.00;64.98;97147.94;10428693;28;20045;-58
2024/02/10 10:56:24;;;;;;;4.07;2.35;;;;;;;13.38;63.21;97139.97;10358877;28;20061;-59
2024/02/10 11:01:29;;;;;;;4.47;2.38;;;;;;;13.53;62.44;97143.47;10359713;28;20052;-59
2024/02/10 11:06:35;;;;;;;3.88;2.38;;;;;;;13.63;61.92;97138.78;10365137;28;20501;-59
2024/02/10 11:11:39;;;;;;;5.60;2.70;;;;;;;13.92;61.84;97131.94;10370195;28;20099;-59
2024/02/10 11:16:44;;;;;;;4.80;2.63;;;;;;;13.70;61.34;97123.94;10375285;28;20054;-59
2024/02/10 11:21:46;;;;;;;4.40;2.25;;;;;;;13.40;61.23;97116.97;10373434;28;20046;-59
2024/02/10 11:26:49;;;;;;;5.50;2.40;;;;;;;13.39;61.15;97119.78;10355029;28;20403;-59
2024/02/10 11:31:51;;;;;;;4.20;2.22;;;;;;;13.47;61.02;97104.81;10374559;28;20560;-59
2024/02/10 11:36:54;;;;;;;4.65;2.33;;;;;;;13.46;61.00;97104.97;10374139;28;20069;-59
2024/02/10 11:42:00;;;;;;;3.17;1.80;;;;;;;13.53;60.81;97093.59;10372795;28;20391;-59
2024/02/10 11:47:02;;;;;;;5.85;2.85;;;;;;;13.59;60.60;97092.06;10371195;28;20065;-60
2024/02/10 11:52:08;;;;;;;3.65;2.20;;;;;;;13.67;60.43;97082.28;10377333;28;20054;-59
2024/02/10 11:57:10;;;;;;;3.97;2.30;;;;;;;13.85;60.32;97084.56;10370525;28;20508;-59
2024/02/10 12:02:14;;;;;;;3.70;2.17;;;;;;;13.74;60.24;97085.81;10362486;28;20049;-60
2024/02/10 12:07:16;;;;;;;3.80;2.17;;;;;;;13.47;60.70;97085.59;10374489;28;20050;-59
2024/02/10 12:12:18;;;;;;;4.13;1.98;;;;;;;13.31;60.77;97090.97;10377469;28;20156;-59
2024/02/10 12:17:25;;;;;;;2.55;1.33;;;;;;;13.16;61.00;97085.69;10370543;28;20052;-59
2024/02/10 12:22:28;;;;;;;2.47;1.60;;;;;;;13.32;60.55;97072.41;10367389;28;20520;-58
2024/02/10 12:27:32;;;;;;;3.10;1.70;;;;;;;13.29;60.83;97061.47;10376816;28;20103;-56
2024/02/10 12:32:34;;;;;;;3.20;1.70;;;;;;;13.60;60.52;97059.53;10372753;28;20069;-58
2024/02/10 12:37:37;;;;;;;6.95;2.17;;;;;;;13.66;59.94;97058.81;10392909;28;20049;-58
2024/02/10 12:42:43;;;;;;;2.85;1.58;;;;;;;13.48;60.36;97053.91;10374466;28;20080;-58
2024/02/10 12:47:45;;;;;;;4.18;1.90;;;;;;;13.70;60.30;97046.94;10376295;28;20135;-58
2024/02/10 12:52:48;;;;;;;4.90;2.22;;;;;;;13.68;60.25;97036.63;10371743;28;20045;-59
2024/02/10 12:57:51;;;;;;;3.47;1.42;;;;;;;13.70;60.10;97033.81;10368881;28;20045;-59
2024/02/10 13:02:56;;;;;;;2.13;1.42;;;;;;;13.81;60.06;97025.50;10370503;28;20394;-59
2024/02/10 13:07:59;;;;;;;2.05;1.30;;;;;;;13.82;59.86;97021.06;10375940;28;20053;-59
2024/02/10 13:13:04;;;;;;;1.98;1.30;;;;;;;13.92;59.59;97011.09;10371773;28;20053;-59
2024/02/10 13:18:06;;;;;;;5.03;1.50;;;;;;;13.74;59.70;97001.75;10376841;28;20045;-57
2024/02/10 13:23:09;;;;;;;2.35;1.38;;;;;;;13.70;60.29;96999.69;10369960;28;20477;-58
2024/02/10 13:28:12;;;;;;;1.40;1.20;;;;;;;13.85;59.47;96991.78;10370528;28;20053;-59
2024/02/10 13:33:15;;;;;;;2.17;1.60;;;;;;;13.79;59.42;96990.72;10381216;28;20452;-56
2024/02/10 14:09:53;;;;;;;1.20;1.00;;;;;;;13.81;59.40;96959.81;10366981;28;20494;-58
2024/02/10 14:14:56;;;;;;;1.40;1.02;;;;;;;13.68;59.65;96955.22;10377261;28;20037;-59
2024/02/10 14:20:12;;;;;;;3.05;1.10;;;;;;;13.71;59.34;96968.00;10374054;28;20124;-58
2024/02/10 14:25:23;;;;;;;4.70;1.27;;;;;;;13.67;59.15;96964.09;10371377;28;20049;-58
2024/02/10 14:30:31;;;;;;;1.98;0.90;;;;;;;13.72;59.12;96979.28;10367009;28;20054;-58
2024/02/10 14:35:44;;;;;;;2.78;1.20;;;;;;;13.65;58.98;96979.22;10375541;28;20125;-59
2024/02/10 14:40:46;;;;;;;3.67;1.50;;;;;;;13.72;59.08;96990.63;10375751;28;20127;-58
2024/02/10 14:45:48;;;;;;;7.35;3.05;;;;;;;13.76;59.01;96991.88;10372697;28;20092;-59
2024/02/10 14:50:52;;;;;;;4.38;2.10;;;;;;;13.70;58.69;96992.63;10374302;28;20408;-57
2024/02/10 14:55:54;;;;;;;3.08;1.50;;;;;;;13.64;59.03;96984.66;10375019;28;20420;-59
2024/02/10 15:00:57;;;;;;;2.20;1.23;;;;;;;13.48;59.70;96984.84;10368366;28;20490;-59
2024/02/10 15:05:59;;;;;;;2.22;1.25;;;;;;;13.22;59.76;96979.19;10369886;28;20049;-58
2024/02/10 15:11:01;;;;;;;2.10;1.15;;;;;;;13.33;60.16;96974.28;10367810;28;20540;-58
2024/02/10 15:16:07;;;;;;;3.10;1.67;;;;;;;13.30;60.30;96979.91;10371304;28;20136;-56
2024/02/10 15:21:09;;;;;;;1.90;1.10;;;;;;;13.14;60.16;96966.97;10373172;28;20053;-58
2024/02/10 15:26:12;;;;;;;1.48;1.10;;;;;;;12.96;60.68;96977.75;10370845;28;20124;-59
2024/02/10 15:31:18;;;;;;;3.75;1.23;;;;;;;12.90;60.64;96977.69;10371805;28;20053;-59
2024/02/10 15:36:30;;;;;;;2.67;1.50;;;;;;;12.80;60.67;96964.81;10366006;28;20486;-58
2024/02/10 15:41:37;;;;;;;1.98;1.00;;;;;;;12.63;61.35;96965.94;10356551;28;20196;-58
2024/02/10 15:46:40;;;;;;;1.70;1.15;;;;;;;12.65;61.26;96963.97;10361123;28;20050;-59
2024/02/10 15:51:43;;;;;;;2.97;1.50;;;;;;;12.55;61.49;96952.91;10359655;28;20049;-58
2024/02/10 15:56:45;;;;;;;3.03;1.48;;;;;;;12.53;61.74;96952.25;10361863;28;20386;-58
2024/02/10 16:01:51;;;;;;;4.95;1.52;;;;;;;12.56;61.80;96951.06;10361279;28;20037;-57
2024/02/10 16:06:54;;;;;;;1.83;1.17;;;;;;;12.45;61.77;96957.56;10369311;28;20144;-58
2024/02/10 16:11:57;;;;;;;1.83;1.20;;;;;;;12.40;62.13;96948.56;10364391;28;20045;-59
2024/02/10 16:17:00;;;;;;;2.30;1.23;;;;;;;12.37;61.97;96941.91;10355041;28;20052;-59
2024/02/10 16:22:04;;;;;;;8.95;1.67;;;;;;;12.32;62.03;96951.25;10359598;28;20514;-58
2024/02/10 16:27:06;;;;;;;1.95;1.20;;;;;;;12.24;62.45;96956.53;10362701;28;20085;-58
2024/02/10 16:32:10;;;;;;;2.10;1.45;;;;;;;12.17;62.66;96953.81;10367935;28;20037;-58
2024/02/10 16:37:16;;;;;;;3.03;1.52;;;;;;;12.11;62.81;96950.06;10359245;28;20045;-58
2024/02/10 16:42:18;;;;;;;4.03;1.60;;;;;;;12.01;62.92;96946.00;10361956;28;20524;-58
2024/02/10 16:47:22;;;;;;;4.30;1.65;;;;;;;11.89;63.21;96955.25;10351745;28;20076;-58
2024/02/10 16:52:29;;;;;;;4.50;1.48;;;;;;;11.91;63.23;96948.03;10370664;28;20056;-59
2024/02/10 16:57:32;;;;;;;2.40;1.30;;;;;;;11.90;62.87;96952.47;10357483;28;20048;-57
2024/02/10 17:02:34;;;;;;;2.83;1.50;;;;;;;11.85;63.16;96949.56;10355084;28;20053;-58
2024/02/10 17:07:36;;;;;;;2.42;1.52;;;;;;;11.81;63.32;96947.44;10363357;28;20045;-58
2024/02/10 17:12:40;;;;;;;2.80;1.35;;;;;;;11.80;63.22;96945.81;10360040;28;20404;-62
2024/02/10 17:17:42;;;;;;;2.75;1.50;;;;;;;11.82;63.17;96951.72;10352710;28;20042;-62
2024/02/10 17:22:44;;;;;;;3.55;1.85;;;;;;;11.81;63.05;96943.03;10358817;28;20559;-62
2024/02/10 17:27:50;;;;;;;3.20;1.77;;;;;;;11.76;63.26;96936.69;10373758;28;20049;-62
2024/02/10 17:32:52;;;;;;;3.40;1.88;;;;;;;11.78;63.33;96940.75;10373519;28;20132;-62
2024/02/10 17:38:00;;;;;;;4.43;2.00;;;;;;;11.76;63.37;96941.91;10369811;28;20048;-62
2024/02/10 17:43:05;;;;;;;4.00;1.80;;;;;;;11.77;63.28;96948.78;10371611;28;20060;-62
2024/02/10 17:48:19;;;;;;;3.65;1.80;;;;;;;11.76;63.51;96947.16;10375397;28;20052;-62
2024/02/10 17:53:25;;;;;;;4.75;2.30;;;;;;;11.76;63.50;96952.38;10364553;28;20058;-62
2024/02/10 17:58:31;;;;;;;4.97;2.60;;;;;;;11.73;63.68;96971.03;10369893;28;20045;-62
2024/02/10 18:03:37;;;;;;;3.30;1.80;;;;;;;11.71;63.62;96973.00;10371700;28;20065;-62
2024/02/10 18:08:40;;;;;;;6.05;2.53;;;;;;;11.68;63.70;96976.78;10371535;28;20481;-62
2024/02/10 18:13:47;;;;;;;3.92;2.33;;;;;;;11.57;63.62;96976.34;10370979;28;20053;-62
2024/02/10 18:18:50;;;;;;;4.40;2.25;;;;;;;11.55;63.87;96970.47;10372809;28;20143;-62
2024/02/10 18:23:53;;;;;;;4.97;2.33;;;;;;;11.55;63.55;96968.66;10365181;28;20077;-62
2024/02/10 18:28:55;;;;;;;3.95;1.88;;;;;;;11.58;63.69;96970.13;10359496;28;20404;-62
2024/02/10 18:33:57;;;;;;;2.78;1.80;;;;;;;11.61;63.70;96969.78;10367146;28;20427;-61
2024/02/10 18:38:59;;;;;;;3.28;1.63;;;;;;;11.65;63.73;96976.31;10368740;28;20046;-62
2024/02/10 18:44:01;;;;;;;4.22;2.13;;;;;;;11.63;63.70;96967.81;10363629;28;20053;-61
2024/02/10 18:49:06;;;;;;;4.68;2.60;;;;;;;11.60;63.87;96968.97;10365207;28;20061;-61
2024/02/10 18:54:12;;;;;;;6.57;2.75;;;;;;;11.59;63.66;96974.38;10368278;28;20057;-61
2024/02/10 18:59:19;;;;;;;7.30;2.35;;;;;;;11.61;63.69;96980.25;10369551;28;20057;-61
2024/02/10 19:04:21;;;;;;;4.38;2.67;;;;;;;11.54;64.10;96981.94;10373709;28;20042;-61
2024/02/10 19:09:23;;;;;;;7.88;3.30;;;;;;;11.51;63.97;96977.03;10362574;28;20053;-61
2024/02/10 19:14:25;;;;;;;5.47;2.90;;;;;;;11.47;64.22;96978.34;10366534;28;20049;-61
2024/02/10 19:19:28;;;;;;;5.25;2.60;;;;;;;11.45;64.02;96977.69;10377440;28;20049;-61
2024/02/10 19:24:31;;;;;;;5.00;2.25;;;;;;;11.53;63.96;96980.28;10369622;28;20131;-61
2024/02/10 19:29:33;;;;;;;5.00;2.15;;;;;;;11.57;64.04;96982.41;10380922;28;20481;-61
2024/02/10 19:34:40;;;;;;;3.78;2.30;;;;;;;11.42;63.73;96967.59;10369972;28;20076;-60
2024/02/10 19:39:42;;;;;;;4.30;2.42;;;;;;;11.15;64.15;96964.34;10368443;28;20132;-61
2024/02/10 19:44:44;;;;;;;3.28;1.98;;;;;;;11.04;64.46;96969.94;10375625;28;20554;-61
2024/02/10 19:49:46;;;;;;;4.32;2.25;;;;;;;11.07;64.58;96963.59;10365850;28;20056;-60
2024/02/10 19:54:50;;;;;;;6.60;3.60;;;;;;;11.09;64.63;96970.25;10369619;28;20045;-60
2024/02/10 19:59:52;;;;;;;6.95;4.35;;;;;;;10.86;64.79;96977.13;10366833;28;20067;-61
2024/02/10 20:04:54;;;;;;;12.30;4.43;;;;;;;10.77;64.87;96992.97;10379775;28;20041;-61
2024/02/10 20:09:57;;;;;;;6.80;3.72;;;;;;;10.74;65.03;96996.75;10377573;28;20146;-60
2024/02/10 20:14:59;;;;;;;8.02;3.80;;;;;;;10.72;65.10;97005.72;10376214;28;20041;-61
2024/02/10 20:20:06;;;;;;;6.82;3.47;;;;;;;10.69;65.18;97001.63;10372012;28;20045;-61
2024/02/10 20:25:10;;;;;;;5.07;3.03;;;;;;;10.59;65.34;97008.81;10369857;28;20050;-61
2024/02/10 20:30:13;;;;;;;7.47;3.28;;;;;;;10.52;65.66;97010.47;10373672;28;20095;-61
2024/02/10 20:35:15;;;;;;;5.60;3.47;;;;;;;10.56;65.58;97016.19;10371617;28;20057;-61
2024/02/10 20:40:20;;;;;;;9.10;4.55;;;;;;;10.55;65.66;97010.13;10364882;28;20054;-61
2024/02/10 20:45:22;;;;;;;8.48;3.80;;;;;;;10.49;65.75;97016.00;10353299;28;20056;-61
2024/02/10 20:50:25;;;;;;;7.70;3.22;;;;;;;10.59;65.61;97024.50;10364379;28;20067;-61
2024/02/10 20:55:28;;;;;;;7.85;3.42;;;;;;;10.60;65.65;97013.09;10363053;28;20045;-61
2024/02/10 21:00:33;;;;;;;8.95;4.30;;;;;;;10.60;65.51;97009.66;10367370;28;20050;-61
2024/02/10 21:05:35;;;;;;;5.60;3.22;;;;;;;10.52;65.50;97013.88;10356843;28;20433;-61
2024/02/10 21:10:37;;;;;;;4.75;2.40;;;;;;;10.39;65.88;97016.16;10362961;28;20532;-61
2024/02/10 21:15:40;;;;;;;6.03;2.63;;;;;;;10.33;66.13;97010.75;10366474;28;20041;-61
2024/02/10 21:20:42;;;;;;;3.55;2.03;;;;;;;10.39;66.11;97010.09;10370528;28;20141;-61
2024/02/10 21:25:47;;;;;;;2.65;1.88;;;;;;;10.48;65.96;97006.53;10361224;28;20049;-62
2024/02/10 21:30:50;;;;;;;5.18;1.90;;;;;;;10.54;65.69;97013.72;10349832;28;20181;-61
2024/02/10 21:35:54;;;;;;;5.68;2.60;;;;;;;10.42;65.81;97015.81;10364346;28;20038;-61
2024/02/10 21:40:56;;;;;;;7.38;1.92;;;;;;;10.36;66.03;97013.84;10355460;28;20056;-61
2024/02/10 21:45:58;;;;;;;3.85;2.00;;;;;;;10.36;66.08;97010.41;10385470;28;20545;-61
2024/02/10 21:51:01;;;;;;;6.70;1.90;;;;;;;10.40;65.92;97011.72;10362842;28;20060;-61
2024/02/10 21:56:05;;;;;;;5.20;2.00;;;;;;;10.36;65.94;97026.09;10366938;28;20053;-61
2024/02/10 22:01:07;;;;;;;4.00;1.90;;;;;;;10.29;65.84;97006.81;10369325;28;20046;-61
2024/02/10 22:06:10;;;;;;;5.93;2.03;;;;;;;10.24;66.00;97004.69;10373311;28;20045;-61
2024/02/10 22:11:12;;;;;;;2.88;1.65;;;;;;;10.20;66.13;97003.38;10367878;28;20054;-60
2024/02/10 22:16:14;;;;;;;3.55;2.22;;;;;;;10.21;65.95;96998.97;10377900;28;21120;-61
2024/02/10 22:21:16;;;;;;;5.22;2.40;;;;;;;10.15;66.04;97005.66;10373061;28;20062;-61
2024/02/10 22:26:21;;;;;;;5.15;2.40;;;;;;;10.03;66.22;96996.50;10369660;28;21044;-61
2024/02/10 22:31:24;;;;;;;10.77;2.58;;;;;;;9.65;66.58;97004.78;10360996;28;20429;-61
2024/02/10 22:36:27;;;;;;;3.55;2.17;;;;;;;9.74;66.70;97013.50;10368472;28;20049;-61
2024/02/10 22:41:31;;;;;;;9.30;2.97;;;;;;;9.73;66.55;97004.84;10377345;28;20710;-60
2024/02/10 22:46:34;;;;;;;4.20;1.95;;;;;;;9.63;66.81;97004.97;10376961;28;20045;-61
2024/02/10 22:51:38;;;;;;;6.03;2.20;;;;;;;9.65;66.80;96999.56;10377859;28;20063;-61
2024/02/10 22:56:42;;;;;;;5.18;2.55;;;;;;;9.58;66.88;96999.38;10385542;28;20054;-61
2024/02/10 23:01:49;;;;;;;5.63;2.90;;;;;;;9.64;66.74;97000.56;10378674;28;20050;-61
2024/02/10 23:06:52;;;;;;;7.07;3.38;;;;;;;9.54;66.85;96998.06;10374103;28;20041;-61
2024/02/10 23:11:55;;;;;;;8.38;2.92;;;;;;;9.47;66.96;96988.41;10376695;28;20500;-61
2024/02/10 23:17:03;;;;;;;5.28;2.40;;;;;;;9.48;67.09;96998.69;10369788;28;20046;-61
2024/02/10 23:22:05;;;;;;;6.30;2.95;;;;;;;9.56;67.00;96996.09;10368007;28;20045;-60
2024/02/10 23:27:07;;;;;;;8.77;2.58;;;;;;;9.68;66.78;97001.09;10373554;28;20136;-62
2024/02/10 23:32:10;;;;;;;4.30;2.20;;;;;;;9.67;66.71;97020.34;10373630;28;20056;-60
2024/02/10 23:37:21;;;;;;;5.65;2.80;;;;;;;9.60;66.83;97033.97;10378687;28;20402;-62
2024/02/10 23:42:24;;;;;;;8.00;2.80;;;;;;;9.57;66.62;97039.50;10379543;28;20060;-62
2024/02/10 23:47:26;;;;;;;5.50;2.78;;;;;;;9.53;66.93;97032.13;10374912;28;20564;-62
2024/02/10 23:52:30;;;;;;;4.50;2.22;;;;;;;9.50;66.77;97032.47;10371924;28;20794;-61
2024/02/10 23:57:34;;;;;;;6.13;2.10;;;;;;;9.54;67.06;97036.38;10369394;28;20398;-62
